sensor_id;sensor_type;location;lat;lon;timestamp;temperature;humidity
70051;SHT30;57391;51.306;22.680;2023-06-10T00:01:19;19.13;70.10
70051;SHT30;57391;51.306;22.680;2023-06-10T00:03:46;19.10;70.02
70051;SHT30;57391;51.306;22.680;2023-06-10T00:06:13;19.09;70.00
70051;SHT30;57391;51.306;22.680;2023-06-10T00:08:40;19.09;69.88
70051;SHT30;57391;51.306;22.680;2023-06-10T00:11:07;19.08;69.95
70051;SHT30;57391;51.306;22.680;2023-06-10T00:13:35;19.09;70.00
70051;SHT30;57391;51.306;22.680;2023-06-10T00:16:02;19.08;69.92
70051;SHT30;57391;51.306;22.680;2023-06-10T00:18:30;19.08;69.93
70051;SHT30;57391;51.306;22.680;2023-06-10T00:20:57;19.09;69.99
70051;SHT30;57391;51.306;22.680;2023-06-10T00:23:30;19.09;70.02
70051;SHT30;57391;51.306;22.680;2023-06-10T00:25:58;19.07;70.17
70051;SHT30;57391;51.306;22.680;2023-06-10T00:28:26;19.03;70.48
70051;SHT30;57391;51.306;22.680;2023-06-10T00:30:53;18.98;70.97
70051;SHT30;57391;51.306;22.680;2023-06-10T00:33:20;18.96;71.17
70051;SHT30;57391;51.306;22.680;2023-06-10T00:35:47;18.93;71.39
70051;SHT30;57391;51.306;22.680;2023-06-10T00:38:15;18.88;71.58
70051;SHT30;57391;51.306;22.680;2023-06-10T00:40:43;18.85;71.77
70051;SHT30;57391;51.306;22.680;2023-06-10T00:43:11;18.81;71.98
70051;SHT30;57391;51.306;22.680;2023-06-10T00:45:38;18.79;72.14
70051;SHT30;57391;51.306;22.680;2023-06-10T00:48:05;18.75;72.26
70051;SHT30;57391;51.306;22.680;2023-06-10T00:50:33;18.68;72.35
70051;SHT30;57391;51.306;22.680;2023-06-10T00:53:01;18.62;72.37
70051;SHT30;57391;51.306;22.680;2023-06-10T00:55:28;18.57;72.56
70051;SHT30;57391;51.306;22.680;2023-06-10T00:57:55;18.54;72.65
70051;SHT30;57391;51.306;22.680;2023-06-10T01:00:22;18.52;72.72
70051;SHT30;57391;51.306;22.680;2023-06-10T01:02:50;18.48;72.94
70051;SHT30;57391;51.306;22.680;2023-06-10T01:05:19;18.47;73.18
70051;SHT30;57391;51.306;22.680;2023-06-10T01:10:48;18.44;73.44
70051;SHT30;57391;51.306;22.680;2023-06-10T01:13:33;18.41;73.65
70051;SHT30;57391;51.306;22.680;2023-06-10T01:16:04;18.40;73.59
70051;SHT30;57391;51.306;22.680;2023-06-10T01:18:32;18.36;73.70
70051;SHT30;57391;51.306;22.680;2023-06-10T01:20:59;18.32;73.88
70051;SHT30;57391;51.306;22.680;2023-06-10T01:23:26;18.26;73.90
70051;SHT30;57391;51.306;22.680;2023-06-10T01:25:58;18.22;73.89
70051;SHT30;57391;51.306;22.680;2023-06-10T01:28:44;18.16;73.86
70051;SHT30;57391;51.306;22.680;2023-06-10T01:31:48;18.11;73.87
70051;SHT30;57391;51.306;22.680;2023-06-10T01:34:42;18.10;73.94
70051;SHT30;57391;51.306;22.680;2023-06-10T01:37:15;18.09;73.95
70051;SHT30;57391;51.306;22.680;2023-06-10T01:39:46;18.09;74.00
70051;SHT30;57391;51.306;22.680;2023-06-10T01:42:15;18.10;74.00
70051;SHT30;57391;51.306;22.680;2023-06-10T01:44:42;18.10;74.05
70051;SHT30;57391;51.306;22.680;2023-06-10T01:47:09;18.11;74.10
70051;SHT30;57391;51.306;22.680;2023-06-10T01:49:37;18.09;74.16
70051;SHT30;57391;51.306;22.680;2023-06-10T01:52:04;18.08;74.28
70051;SHT30;57391;51.306;22.680;2023-06-10T01:54:33;18.07;74.43
70051;SHT30;57391;51.306;22.680;2023-06-10T01:57:04;18.05;74.58
70051;SHT30;57391;51.306;22.680;2023-06-10T01:59:32;18.03;74.73
70051;SHT30;57391;51.306;22.680;2023-06-10T02:02:00;18.02;74.95
70051;SHT30;57391;51.306;22.680;2023-06-10T02:04:26;18.03;74.99
70051;SHT30;57391;51.306;22.680;2023-06-10T02:06:54;18.02;74.98
70051;SHT30;57391;51.306;22.680;2023-06-10T02:09:22;17.98;75.07
70051;SHT30;57391;51.306;22.680;2023-06-10T02:11:49;17.94;75.24
70051;SHT30;57391;51.306;22.680;2023-06-10T02:14:16;17.90;75.38
70051;SHT30;57391;51.306;22.680;2023-06-10T02:16:43;17.88;75.52
70051;SHT30;57391;51.306;22.680;2023-06-10T02:19:13;17.87;75.62
70051;SHT30;57391;51.306;22.680;2023-06-10T02:21:40;17.87;75.82
70051;SHT30;57391;51.306;22.680;2023-06-10T02:24:09;17.86;75.91
70051;SHT30;57391;51.306;22.680;2023-06-10T02:26:36;17.85;75.97
70051;SHT30;57391;51.306;22.680;2023-06-10T02:29:03;17.84;75.97
70051;SHT30;57391;51.306;22.680;2023-06-10T02:31:30;17.83;76.01
70051;SHT30;57391;51.306;22.680;2023-06-10T02:33:57;17.83;76.11
70051;SHT30;57391;51.306;22.680;2023-06-10T02:36:25;17.81;76.23
70051;SHT30;57391;51.306;22.680;2023-06-10T02:38:53;17.77;76.32
70051;SHT30;57391;51.306;22.680;2023-06-10T02:41:21;17.77;76.37
70051;SHT30;57391;51.306;22.680;2023-06-10T02:43:51;17.77;76.45
70051;SHT30;57391;51.306;22.680;2023-06-10T02:46:19;17.73;76.53
70051;SHT30;57391;51.306;22.680;2023-06-10T02:48:46;17.72;76.59
70051;SHT30;57391;51.306;22.680;2023-06-10T02:51:15;17.73;76.58
70051;SHT30;57391;51.306;22.680;2023-06-10T02:53:46;17.72;76.60
70051;SHT30;57391;51.306;22.680;2023-06-10T02:56:15;17.69;76.73
70051;SHT30;57391;51.306;22.680;2023-06-10T02:58:44;17.67;76.96
70051;SHT30;57391;51.306;22.680;2023-06-10T03:01:12;17.64;77.17
70051;SHT30;57391;51.306;22.680;2023-06-10T03:03:51;17.61;77.46
70051;SHT30;57391;51.306;22.680;2023-06-10T03:06:19;17.58;77.67
70051;SHT30;57391;51.306;22.680;2023-06-10T03:08:46;17.58;77.84
70051;SHT30;57391;51.306;22.680;2023-06-10T03:11:16;17.59;77.80
70051;SHT30;57391;51.306;22.680;2023-06-10T03:13:43;17.58;77.90
70051;SHT30;57391;51.306;22.680;2023-06-10T03:16:12;17.56;78.00
70051;SHT30;57391;51.306;22.680;2023-06-10T03:18:39;17.54;78.06
70051;SHT30;57391;51.306;22.680;2023-06-10T03:21:07;17.53;78.18
70051;SHT30;57391;51.306;22.680;2023-06-10T03:23:35;17.54;78.26
70051;SHT30;57391;51.306;22.680;2023-06-10T03:26:03;17.52;78.41
70051;SHT30;57391;51.306;22.680;2023-06-10T03:28:32;17.50;78.49
70051;SHT30;57391;51.306;22.680;2023-06-10T03:30:59;17.48;78.60
70051;SHT30;57391;51.306;22.680;2023-06-10T03:33:26;17.47;78.70
70051;SHT30;57391;51.306;22.680;2023-06-10T03:35:54;17.45;78.80
70051;SHT30;57391;51.306;22.680;2023-06-10T03:38:21;17.44;78.86
70051;SHT30;57391;51.306;22.680;2023-06-10T03:40:48;17.42;78.90
70051;SHT30;57391;51.306;22.680;2023-06-10T03:43:16;17.41;78.96
70051;SHT30;57391;51.306;22.680;2023-06-10T03:45:43;17.39;79.05
70051;SHT30;57391;51.306;22.680;2023-06-10T03:48:12;17.36;79.10
70051;SHT30;57391;51.306;22.680;2023-06-10T03:50:46;17.34;79.23
70051;SHT30;57391;51.306;22.680;2023-06-10T03:53:14;17.35;79.49
70051;SHT30;57391;51.306;22.680;2023-06-10T03:55:42;17.35;79.40
70051;SHT30;57391;51.306;22.680;2023-06-10T03:58:09;17.33;79.40
70051;SHT30;57391;51.306;22.680;2023-06-10T04:00:39;17.33;79.47
70051;SHT30;57391;51.306;22.680;2023-06-10T04:03:10;17.34;79.50
70051;SHT30;57391;51.306;22.680;2023-06-10T04:05:43;17.35;79.62
70051;SHT30;57391;51.306;22.680;2023-06-10T04:08:10;17.37;79.72
70051;SHT30;57391;51.306;22.680;2023-06-10T04:10:37;17.41;79.83
70051;SHT30;57391;51.306;22.680;2023-06-10T04:13:04;17.41;79.76
70051;SHT30;57391;51.306;22.680;2023-06-10T04:15:36;17.42;79.70
70051;SHT30;57391;51.306;22.680;2023-06-10T04:18:06;17.42;79.66
70051;SHT30;57391;51.306;22.680;2023-06-10T04:20:33;17.42;79.72
70051;SHT30;57391;51.306;22.680;2023-06-10T04:23:00;17.41;79.72
70051;SHT30;57391;51.306;22.680;2023-06-10T04:25:28;17.40;79.71
70051;SHT30;57391;51.306;22.680;2023-06-10T04:27:56;17.39;79.82
70051;SHT30;57391;51.306;22.680;2023-06-10T04:30:23;17.35;79.91
70051;SHT30;57391;51.306;22.680;2023-06-10T04:32:51;17.30;80.16
70051;SHT30;57391;51.306;22.680;2023-06-10T04:35:18;17.24;80.37
70051;SHT30;57391;51.306;22.680;2023-06-10T04:37:46;17.21;80.72
70051;SHT30;57391;51.306;22.680;2023-06-10T04:40:14;17.21;80.91
70051;SHT30;57391;51.306;22.680;2023-06-10T04:42:42;17.21;80.84
70051;SHT30;57391;51.306;22.680;2023-06-10T04:45:10;17.20;80.90
70051;SHT30;57391;51.306;22.680;2023-06-10T04:47:38;17.20;81.02
70051;SHT30;57391;51.306;22.680;2023-06-10T04:50:05;17.19;81.01
70051;SHT30;57391;51.306;22.680;2023-06-10T04:52:33;17.17;81.05
70051;SHT30;57391;51.306;22.680;2023-06-10T04:55:00;17.14;81.18
70051;SHT30;57391;51.306;22.680;2023-06-10T04:57:28;17.11;81.36
70051;SHT30;57391;51.306;22.680;2023-06-10T04:59:55;17.08;81.49
70051;SHT30;57391;51.306;22.680;2023-06-10T05:02:22;17.05;81.60
70051;SHT30;57391;51.306;22.680;2023-06-10T05:04:49;17.04;81.62
70051;SHT30;57391;51.306;22.680;2023-06-10T05:07:17;17.06;81.70
70051;SHT30;57391;51.306;22.680;2023-06-10T05:09:44;17.06;81.78
70051;SHT30;57391;51.306;22.680;2023-06-10T05:12:11;17.07;81.88
70051;SHT30;57391;51.306;22.680;2023-06-10T05:14:38;17.06;81.95
70051;SHT30;57391;51.306;22.680;2023-06-10T05:17:06;17.08;81.93
70051;SHT30;57391;51.306;22.680;2023-06-10T05:19:33;17.07;81.96
70051;SHT30;57391;51.306;22.680;2023-06-10T05:22:02;17.08;82.09
70051;SHT30;57391;51.306;22.680;2023-06-10T05:24:29;17.06;82.21
70051;SHT30;57391;51.306;22.680;2023-06-10T05:26:56;17.03;82.42
70051;SHT30;57391;51.306;22.680;2023-06-10T05:29:23;17.00;82.60
70051;SHT30;57391;51.306;22.680;2023-06-10T05:31:50;16.95;82.88
70051;SHT30;57391;51.306;22.680;2023-06-10T05:34:17;16.90;83.03
70051;SHT30;57391;51.306;22.680;2023-06-10T05:36:44;16.88;83.12
70051;SHT30;57391;51.306;22.680;2023-06-10T05:39:12;16.86;83.19
70051;SHT30;57391;51.306;22.680;2023-06-10T05:41:39;16.86;83.24
70051;SHT30;57391;51.306;22.680;2023-06-10T05:44:07;16.87;83.09
70051;SHT30;57391;51.306;22.680;2023-06-10T05:46:34;16.85;83.06
70051;SHT30;57391;51.306;22.680;2023-06-10T05:49:01;16.84;83.03
70051;SHT30;57391;51.306;22.680;2023-06-10T05:51:29;16.83;83.06
70051;SHT30;57391;51.306;22.680;2023-06-10T05:53:57;16.82;83.07
70051;SHT30;57391;51.306;22.680;2023-06-10T05:56:24;16.81;83.03
70051;SHT30;57391;51.306;22.680;2023-06-10T05:58:52;16.82;83.16
70051;SHT30;57391;51.306;22.680;2023-06-10T06:01:20;16.84;83.22
70051;SHT30;57391;51.306;22.680;2023-06-10T06:03:47;16.84;83.07
70051;SHT30;57391;51.306;22.680;2023-06-10T06:06:15;16.88;82.98
70051;SHT30;57391;51.306;22.680;2023-06-10T06:08:42;16.93;82.92
70051;SHT30;57391;51.306;22.680;2023-06-10T06:11:09;16.97;82.67
70051;SHT30;57391;51.306;22.680;2023-06-10T06:13:36;17.02;82.47
70051;SHT30;57391;51.306;22.680;2023-06-10T06:16:04;17.07;82.27
70051;SHT30;57391;51.306;22.680;2023-06-10T06:18:31;17.11;82.24
70051;SHT30;57391;51.306;22.680;2023-06-10T06:21:01;17.14;81.77
70051;SHT30;57391;51.306;22.680;2023-06-10T06:23:28;17.18;81.76
70051;SHT30;57391;51.306;22.680;2023-06-10T06:25:55;17.23;81.78
70051;SHT30;57391;51.306;22.680;2023-06-10T06:28:22;17.30;81.74
70051;SHT30;57391;51.306;22.680;2023-06-10T06:30:55;17.37;81.51
70051;SHT30;57391;51.306;22.680;2023-06-10T06:33:23;17.40;81.05
70051;SHT30;57391;51.306;22.680;2023-06-10T06:35:50;17.46;80.99
70051;SHT30;57391;51.306;22.680;2023-06-10T06:38:17;17.51;80.96
70051;SHT30;57391;51.306;22.680;2023-06-10T06:40:44;17.59;80.81
70051;SHT30;57391;51.306;22.680;2023-06-10T06:43:11;17.66;80.94
70051;SHT30;57391;51.306;22.680;2023-06-10T06:45:59;17.73;80.41
70051;SHT30;57391;51.306;22.680;2023-06-10T06:48:26;17.78;80.47
70051;SHT30;57391;51.306;22.680;2023-06-10T06:50:53;17.83;79.91
70051;SHT30;57391;51.306;22.680;2023-06-10T06:53:22;17.84;79.55
70051;SHT30;57391;51.306;22.680;2023-06-10T06:55:49;17.88;79.49
70051;SHT30;57391;51.306;22.680;2023-06-10T06:58:17;17.92;79.63
70051;SHT30;57391;51.306;22.680;2023-06-10T07:00:44;17.97;79.46
70051;SHT30;57391;51.306;22.680;2023-06-10T07:03:11;18.02;79.40
70051;SHT30;57391;51.306;22.680;2023-06-10T07:05:39;18.07;78.91
70051;SHT30;57391;51.306;22.680;2023-06-10T07:08:07;18.10;78.51
70051;SHT30;57391;51.306;22.680;2023-06-10T07:10:34;18.15;78.77
70051;SHT30;57391;51.306;22.680;2023-06-10T07:16:01;18.13;78.66
70051;SHT30;57391;51.306;22.680;2023-06-10T07:18:29;18.21;78.59
70051;SHT30;57391;51.306;22.680;2023-06-10T07:20:55;18.22;78.25
70051;SHT30;57391;51.306;22.680;2023-06-10T07:23:23;18.25;78.46
70051;SHT30;57391;51.306;22.680;2023-06-10T07:25:50;18.28;77.96
70051;SHT30;57391;51.306;22.680;2023-06-10T07:28:17;18.27;77.86
70051;SHT30;57391;51.306;22.680;2023-06-10T07:30:45;18.28;78.06
70051;SHT30;57391;51.306;22.680;2023-06-10T07:33:12;18.29;77.81
70051;SHT30;57391;51.306;22.680;2023-06-10T07:35:42;18.31;77.78
70051;SHT30;57391;51.306;22.680;2023-06-10T07:38:09;18.29;77.59
70051;SHT30;57391;51.306;22.680;2023-06-10T07:40:39;18.32;78.05
70051;SHT30;57391;51.306;22.680;2023-06-10T07:43:06;18.34;77.99
70051;SHT30;57391;51.306;22.680;2023-06-10T07:45:33;18.35;78.08
70051;SHT30;57391;51.306;22.680;2023-06-10T07:48:00;18.38;78.33
70051;SHT30;57391;51.306;22.680;2023-06-10T07:50:28;18.37;77.79
70051;SHT30;57391;51.306;22.680;2023-06-10T07:52:56;18.36;77.57
70051;SHT30;57391;51.306;22.680;2023-06-10T07:55:22;18.37;77.82
70051;SHT30;57391;51.306;22.680;2023-06-10T07:57:53;18.35;77.64
70051;SHT30;57391;51.306;22.680;2023-06-10T08:00:21;18.30;77.55
70051;SHT30;57391;51.306;22.680;2023-06-10T08:02:48;18.26;77.88
70051;SHT30;57391;51.306;22.680;2023-06-10T08:05:15;18.24;77.97
70051;SHT30;57391;51.306;22.680;2023-06-10T08:07:44;18.22;78.16
70051;SHT30;57391;51.306;22.680;2023-06-10T08:10:11;18.24;78.20
70051;SHT30;57391;51.306;22.680;2023-06-10T08:12:39;18.24;77.87
70051;SHT30;57391;51.306;22.680;2023-06-10T08:15:06;18.22;77.65
70051;SHT30;57391;51.306;22.680;2023-06-10T08:17:33;18.19;78.07
70051;SHT30;57391;51.306;22.680;2023-06-10T08:20:01;18.20;78.24
70051;SHT30;57391;51.306;22.680;2023-06-10T08:22:29;18.19;78.24
70051;SHT30;57391;51.306;22.680;2023-06-10T08:24:56;18.17;78.02
70051;SHT30;57391;51.306;22.680;2023-06-10T08:27:23;18.16;78.22
70051;SHT30;57391;51.306;22.680;2023-06-10T08:29:51;18.15;78.19
70051;SHT30;57391;51.306;22.680;2023-06-10T08:32:19;18.18;78.62
70051;SHT30;57391;51.306;22.680;2023-06-10T08:34:46;18.17;78.32
70051;SHT30;57391;51.306;22.680;2023-06-10T08:37:13;18.16;78.46
70051;SHT30;57391;51.306;22.680;2023-06-10T08:39:41;18.15;78.47
70051;SHT30;57391;51.306;22.680;2023-06-10T08:42:19;18.12;78.27
70051;SHT30;57391;51.306;22.680;2023-06-10T08:44:55;18.11;78.58
70051;SHT30;57391;51.306;22.680;2023-06-10T08:47:23;18.10;78.67
70051;SHT30;57391;51.306;22.680;2023-06-10T08:49:52;18.17;78.64
70051;SHT30;57391;51.306;22.680;2023-06-10T08:52:22;18.34;77.94
70051;SHT30;57391;51.306;22.680;2023-06-10T08:54:59;18.49;77.38
70051;SHT30;57391;51.306;22.680;2023-06-10T08:57:31;18.65;77.22
70051;SHT30;57391;51.306;22.680;2023-06-10T08:59:58;18.79;76.73
70051;SHT30;57391;51.306;22.680;2023-06-10T09:02:27;18.92;76.51
70051;SHT30;57391;51.306;22.680;2023-06-10T09:04:55;19.16;76.26
70051;SHT30;57391;51.306;22.680;2023-06-10T09:07:27;19.33;75.09
70051;SHT30;57391;51.306;22.680;2023-06-10T09:10:03;19.38;74.99
70051;SHT30;57391;51.306;22.680;2023-06-10T09:12:33;19.43;74.47
70051;SHT30;57391;51.306;22.680;2023-06-10T09:15:01;19.48;74.42
70051;SHT30;57391;51.306;22.680;2023-06-10T09:17:30;19.59;74.52
70051;SHT30;57391;51.306;22.680;2023-06-10T09:19:59;19.70;73.12
70051;SHT30;57391;51.306;22.680;2023-06-10T09:22:29;19.68;71.27
70051;SHT30;57391;51.306;22.680;2023-06-10T09:25:13;19.57;71.32
70051;SHT30;57391;51.306;22.680;2023-06-10T09:27:44;19.47;72.19
70051;SHT30;57391;51.306;22.680;2023-06-10T09:30:27;19.43;71.70
70051;SHT30;57391;51.306;22.680;2023-06-10T09:33:02;19.33;71.64
70051;SHT30;57391;51.306;22.680;2023-06-10T09:35:44;19.25;72.29
70051;SHT30;57391;51.306;22.680;2023-06-10T09:38:20;19.23;71.87
70051;SHT30;57391;51.306;22.680;2023-06-10T09:40:50;19.18;71.26
70051;SHT30;57391;51.306;22.680;2023-06-10T09:43:19;19.11;71.04
70051;SHT30;57391;51.306;22.680;2023-06-10T09:45:51;19.08;71.48
70051;SHT30;57391;51.306;22.680;2023-06-10T09:48:21;19.10;70.97
70051;SHT30;57391;51.306;22.680;2023-06-10T09:50:50;19.14;70.89
70051;SHT30;57391;51.306;22.680;2023-06-10T09:53:17;19.25;70.97
70051;SHT30;57391;51.306;22.680;2023-06-10T09:55:45;19.41;71.26
70051;SHT30;57391;51.306;22.680;2023-06-10T09:58:12;19.55;70.72
70051;SHT30;57391;51.306;22.680;2023-06-10T10:00:40;19.67;69.82
70051;SHT30;57391;51.306;22.680;2023-06-10T10:03:07;19.75;68.58
70051;SHT30;57391;51.306;22.680;2023-06-10T10:05:35;19.88;68.08
70051;SHT30;57391;51.306;22.680;2023-06-10T10:08:02;19.86;67.74
70051;SHT30;57391;51.306;22.680;2023-06-10T10:10:30;19.81;66.94
70051;SHT30;57391;51.306;22.680;2023-06-10T10:12:58;19.69;66.59
70051;SHT30;57391;51.306;22.680;2023-06-10T10:15:28;19.52;67.26
70051;SHT30;57391;51.306;22.680;2023-06-10T10:18:09;19.40;67.70
70051;SHT30;57391;51.306;22.680;2023-06-10T10:20:44;19.38;68.73
70051;SHT30;57391;51.306;22.680;2023-06-10T10:23:18;19.40;68.88
70051;SHT30;57391;51.306;22.680;2023-06-10T10:26:02;19.36;68.52
70051;SHT30;57391;51.306;22.680;2023-06-10T10:29:05;19.34;69.10
70051;SHT30;57391;51.306;22.680;2023-06-10T10:31:49;19.37;69.33
70051;SHT30;57391;51.306;22.680;2023-06-10T10:34:25;19.39;68.96
70051;SHT30;57391;51.306;22.680;2023-06-10T10:37:07;19.39;68.92
70051;SHT30;57391;51.306;22.680;2023-06-10T10:39:35;19.42;68.79
70051;SHT30;57391;51.306;22.680;2023-06-10T10:42:04;19.46;68.71
70051;SHT30;57391;51.306;22.680;2023-06-10T10:44:37;19.46;68.55
70051;SHT30;57391;51.306;22.680;2023-06-10T10:47:08;19.45;68.69
70051;SHT30;57391;51.306;22.680;2023-06-10T10:49:37;19.45;68.88
70051;SHT30;57391;51.306;22.680;2023-06-10T10:52:08;19.45;68.90
70051;SHT30;57391;51.306;22.680;2023-06-10T10:54:43;19.44;69.17
70051;SHT30;57391;51.306;22.680;2023-06-10T10:57:19;19.44;69.37
70051;SHT30;57391;51.306;22.680;2023-06-10T10:59:52;19.45;69.33
70051;SHT30;57391;51.306;22.680;2023-06-10T11:05:15;19.52;69.25
70051;SHT30;57391;51.306;22.680;2023-06-10T11:07:54;19.61;69.63
70051;SHT30;57391;51.306;22.680;2023-06-10T11:10:28;19.67;69.30
70051;SHT30;57391;51.306;22.680;2023-06-10T11:15:46;19.75;69.22
70051;SHT30;57391;51.306;22.680;2023-06-10T11:18:20;19.76;69.09
70051;SHT30;57391;51.306;22.680;2023-06-10T11:20:52;19.76;69.20
70051;SHT30;57391;51.306;22.680;2023-06-10T11:31:31;20.08;69.19
70051;SHT30;57391;51.306;22.680;2023-06-10T11:34:01;20.19;68.91
70051;SHT30;57391;51.306;22.680;2023-06-10T11:36:32;20.26;68.74
70051;SHT30;57391;51.306;22.680;2023-06-10T11:39:04;20.35;69.05
70051;SHT30;57391;51.306;22.680;2023-06-10T11:41:33;20.46;68.27
70051;SHT30;57391;51.306;22.680;2023-06-10T11:44:07;20.50;67.42
70051;SHT30;57391;51.306;22.680;2023-06-10T12:54:08;21.92;63.97
70051;SHT30;57391;51.306;22.680;2023-06-10T12:56:34;21.95;64.03
70051;SHT30;57391;51.306;22.680;2023-06-10T12:59:02;22.02;62.62
70051;SHT30;57391;51.306;22.680;2023-06-10T13:01:29;22.11;62.49
70051;SHT30;57391;51.306;22.680;2023-06-10T13:03:57;22.19;61.73
70051;SHT30;57391;51.306;22.680;2023-06-10T13:06:24;22.27;61.14
70051;SHT30;57391;51.306;22.680;2023-06-10T13:08:51;22.34;60.65
70051;SHT30;57391;51.306;22.680;2023-06-10T13:11:17;22.36;60.46
70051;SHT30;57391;51.306;22.680;2023-06-10T13:13:44;22.40;61.21
70051;SHT30;57391;51.306;22.680;2023-06-10T13:16:11;22.48;60.77
70051;SHT30;57391;51.306;22.680;2023-06-10T13:18:38;22.52;60.62
70051;SHT30;57391;51.306;22.680;2023-06-10T13:21:05;22.60;60.57
70051;SHT30;57391;51.306;22.680;2023-06-10T13:23:32;22.67;58.72
70051;SHT30;57391;51.306;22.680;2023-06-10T13:25:58;22.72;58.71
70051;SHT30;57391;51.306;22.680;2023-06-10T13:28:24;22.74;58.59
70051;SHT30;57391;51.306;22.680;2023-06-10T13:30:51;22.79;58.99
70051;SHT30;57391;51.306;22.680;2023-06-10T13:33:17;22.87;60.19
70051;SHT30;57391;51.306;22.680;2023-06-10T13:35:43;22.95;60.16
70051;SHT30;57391;51.306;22.680;2023-06-10T13:38:10;23.06;60.14
70051;SHT30;57391;51.306;22.680;2023-06-10T13:40:36;23.15;58.97
70051;SHT30;57391;51.306;22.680;2023-06-10T13:43:02;23.21;58.95
70051;SHT30;57391;51.306;22.680;2023-06-10T13:45:29;23.27;58.89
70051;SHT30;57391;51.306;22.680;2023-06-10T13:47:55;23.30;58.65
70051;SHT30;57391;51.306;22.680;2023-06-10T13:50:21;23.29;58.09
70051;SHT30;57391;51.306;22.680;2023-06-10T13:52:47;23.22;58.49
70051;SHT30;57391;51.306;22.680;2023-06-10T13:55:14;23.20;58.24
70051;SHT30;57391;51.306;22.680;2023-06-10T13:57:41;23.21;58.21
70051;SHT30;57391;51.306;22.680;2023-06-10T14:00:08;23.20;57.62
70051;SHT30;57391;51.306;22.680;2023-06-10T14:02:36;23.19;57.18
70051;SHT30;57391;51.306;22.680;2023-06-10T14:05:03;23.19;57.00
70051;SHT30;57391;51.306;22.680;2023-06-10T14:07:31;23.19;56.53
70051;SHT30;57391;51.306;22.680;2023-06-10T14:09:57;23.17;56.44
70051;SHT30;57391;51.306;22.680;2023-06-10T14:12:24;23.14;56.51
70051;SHT30;57391;51.306;22.680;2023-06-10T14:14:51;23.08;56.58
70051;SHT30;57391;51.306;22.680;2023-06-10T14:17:17;23.03;56.60
70051;SHT30;57391;51.306;22.680;2023-06-10T14:19:43;22.99;56.66
70051;SHT30;57391;51.306;22.680;2023-06-10T14:22:10;22.96;57.03
70051;SHT30;57391;51.306;22.680;2023-06-10T14:24:36;22.95;57.85
70051;SHT30;57391;51.306;22.680;2023-06-10T14:27:03;22.94;58.27
70051;SHT30;57391;51.306;22.680;2023-06-10T14:29:29;22.97;58.14
70051;SHT30;57391;51.306;22.680;2023-06-10T14:31:57;22.98;58.12
70051;SHT30;57391;51.306;22.680;2023-06-10T14:34:23;22.96;58.19
70051;SHT30;57391;51.306;22.680;2023-06-10T14:36:54;22.93;57.37
70051;SHT30;57391;51.306;22.680;2023-06-10T14:39:21;22.90;57.48
70051;SHT30;57391;51.306;22.680;2023-06-10T14:41:47;22.84;57.93
70051;SHT30;57391;51.306;22.680;2023-06-10T14:44:13;22.83;59.01
70051;SHT30;57391;51.306;22.680;2023-06-10T14:46:40;22.88;59.44
70051;SHT30;57391;51.306;22.680;2023-06-10T14:49:06;22.93;59.27
70051;SHT30;57391;51.306;22.680;2023-06-10T14:51:32;22.95;58.58
70051;SHT30;57391;51.306;22.680;2023-06-10T14:53:59;22.99;59.13
70051;SHT30;57391;51.306;22.680;2023-06-10T14:56:25;23.01;59.36
70051;SHT30;57391;51.306;22.680;2023-06-10T14:58:51;23.01;59.33
70051;SHT30;57391;51.306;22.680;2023-06-10T15:01:18;23.01;59.36
70051;SHT30;57391;51.306;22.680;2023-06-10T15:03:44;22.98;59.37
70051;SHT30;57391;51.306;22.680;2023-06-10T15:06:10;22.89;59.10
70051;SHT30;57391;51.306;22.680;2023-06-10T15:08:36;22.79;59.53
70051;SHT30;57391;51.306;22.680;2023-06-10T15:11:03;22.67;58.73
70051;SHT30;57391;51.306;22.680;2023-06-10T15:13:29;22.51;57.26
70051;SHT30;57391;51.306;22.680;2023-06-10T15:15:55;22.30;57.08
70051;SHT30;57391;51.306;22.680;2023-06-10T15:18:21;22.06;58.05
70051;SHT30;57391;51.306;22.680;2023-06-10T15:20:47;21.90;59.11
70051;SHT30;57391;51.306;22.680;2023-06-10T15:23:14;21.77;59.75
70051;SHT30;57391;51.306;22.680;2023-06-10T15:25:40;21.64;59.27
70051;SHT30;57391;51.306;22.680;2023-06-10T15:28:07;21.51;60.04
70051;SHT30;57391;51.306;22.680;2023-06-10T15:30:34;21.47;60.80
70051;SHT30;57391;51.306;22.680;2023-06-10T15:33:00;21.44;61.58
70051;SHT30;57391;51.306;22.680;2023-06-10T15:35:26;21.39;61.70
70051;SHT30;57391;51.306;22.680;2023-06-10T15:37:53;21.34;61.55
70051;SHT30;57391;51.306;22.680;2023-06-10T15:40:20;21.29;61.33
70051;SHT30;57391;51.306;22.680;2023-06-10T15:42:46;21.20;61.47
70051;SHT30;57391;51.306;22.680;2023-06-10T15:45:12;21.08;61.78
70051;SHT30;57391;51.306;22.680;2023-06-10T15:47:39;20.98;62.11
70051;SHT30;57391;51.306;22.680;2023-06-10T15:50:08;20.91;62.97
70051;SHT30;57391;51.306;22.680;2023-06-10T15:52:35;20.86;63.63
70051;SHT30;57391;51.306;22.680;2023-06-10T15:55:01;20.80;64.10
70051;SHT30;57391;51.306;22.680;2023-06-10T15:57:28;20.78;64.76
70051;SHT30;57391;51.306;22.680;2023-06-10T15:59:55;20.74;64.60
70051;SHT30;57391;51.306;22.680;2023-06-10T16:02:21;20.69;64.57
70051;SHT30;57391;51.306;22.680;2023-06-10T16:04:47;20.62;64.91
70051;SHT30;57391;51.306;22.680;2023-06-10T16:07:14;20.60;65.30
70051;SHT30;57391;51.306;22.680;2023-06-10T16:09:40;20.58;65.08
70051;SHT30;57391;51.306;22.680;2023-06-10T16:12:06;20.57;65.22
70051;SHT30;57391;51.306;22.680;2023-06-10T16:14:33;20.58;65.12
70051;SHT30;57391;51.306;22.680;2023-06-10T16:16:59;20.60;65.22
70051;SHT30;57391;51.306;22.680;2023-06-10T16:19:26;20.58;65.01
70051;SHT30;57391;51.306;22.680;2023-06-10T16:21:54;20.56;65.03
70051;SHT30;57391;51.306;22.680;2023-06-10T16:24:20;20.53;65.02
70051;SHT30;57391;51.306;22.680;2023-06-10T16:26:46;20.50;65.24
70051;SHT30;57391;51.306;22.680;2023-06-10T16:29:14;20.49;64.90
70051;SHT30;57391;51.306;22.680;2023-06-10T16:31:41;20.46;65.18
70051;SHT30;57391;51.306;22.680;2023-06-10T16:34:08;20.44;65.28
70051;SHT30;57391;51.306;22.680;2023-06-10T16:36:34;20.42;65.29
70051;SHT30;57391;51.306;22.680;2023-06-10T16:39:01;20.42;65.54
70051;SHT30;57391;51.306;22.680;2023-06-10T16:41:28;20.45;65.86
70051;SHT30;57391;51.306;22.680;2023-06-10T16:43:54;20.44;65.92
70051;SHT30;57391;51.306;22.680;2023-06-10T16:46:20;20.42;66.03
70051;SHT30;57391;51.306;22.680;2023-06-10T16:48:48;20.42;65.94
70051;SHT30;57391;51.306;22.680;2023-06-10T16:51:14;20.40;66.16